Time;durP1;ratioP1;P1;durP2;ratioP2;P2;SDS_P1;SDS_P2;PMS_P1;PMS_P2;Temp;Humidity;BMP_temperature;BMP_pressure;BME280_temperature;BME280_humidity;BME280_pressure;Samples;Min_cycle;Max_cycle;Signal;HPM_P1;HPM_P2
2022/07/25 00:00:07;;;;;;;;;;;21.80;99.90;;;;;;5021933;28;19929;-73
2022/07/25 00:02:33;;;;;;;;;;;21.80;99.90;;;;;;5020790;28;19929;-72
2022/07/25 00:04:59;;;;;;;;;;;21.80;99.90;;;;;;5018669;28;20428;-72
2022/07/25 00:07:24;;;;;;;;;;;21.70;99.90;;;;;;5027994;28;19929;-72
2022/07/25 00:09:50;;;;;;;;;;;21.70;99.90;;;;;;5042958;28;19971;-71
2022/07/25 00:12:16;;;;;;;;;;;21.70;99.90;;;;;;5020438;28;19972;-72
2022/07/25 00:14:41;;;;;;;;;;;21.70;99.90;;;;;;5023330;28;19925;-72
2022/07/25 00:17:07;;;;;;;;;;;21.70;99.90;;;;;;5025914;28;19921;-72
2022/07/25 00:19:32;;;;;;;;;;;21.60;99.90;;;;;;5022819;28;19967;-72
2022/07/25 00:21:58;;;;;;;;;;;21.60;99.90;;;;;;5021282;28;19929;-72
2022/07/25 00:24:23;;;;;;;;;;;21.60;99.90;;;;;;5028237;28;20015;-72
2022/07/25 00:26:49;;;;;;;;;;;21.60;99.90;;;;;;5036824;28;19933;-72
2022/07/25 00:29:15;;;;;;;;;;;21.50;99.90;;;;;;5022227;28;19921;-72
2022/07/25 00:31:40;;;;;;;;;;;21.50;99.90;;;;;;5029589;28;19921;-72
2022/07/25 00:34:06;;;;;;;;;;;21.50;99.90;;;;;;5025369;28;19975;-72
2022/07/25 00:36:31;;;;;;;;;;;21.50;99.90;;;;;;5026291;28;19925;-71
2022/07/25 00:38:57;;;;;;;;;;;21.50;99.90;;;;;;5044866;28;19965;-72
2022/07/25 00:41:22;;;;;;;;;;;21.40;99.90;;;;;;5024487;28;19936;-72
2022/07/25 00:43:48;;;;;;;;;;;21.40;99.90;;;;;;5034326;28;19921;-72
2022/07/25 00:46:15;;;;;;;;;;;21.40;99.90;;;;;;5045209;28;19921;-72
2022/07/25 00:48:41;;;;;;;;;;;21.30;99.90;;;;;;5028777;28;19921;-72
2022/07/25 00:51:07;;;;;;;;;;;21.30;99.90;;;;;;5026214;28;19921;-72
2022/07/25 00:53:33;;;;;;;;;;;21.30;99.90;;;;;;5022856;28;19966;-72
2022/07/25 00:55:58;;;;;;;;;;;21.30;99.90;;;;;;5027163;28;19921;-72
2022/07/25 00:58:24;;;;;;;;;;;21.20;99.90;;;;;;5020315;28;20019;-72
2022/07/25 01:00:49;;;;;;;;;;;21.20;99.90;;;;;;5019906;28;19937;-73
2022/07/25 01:03:15;;;;;;;;;;;21.20;99.90;;;;;;5022662;28;19925;-72
2022/07/25 01:05:41;;;;;;;;;;;21.20;99.90;;;;;;5019676;28;19922;-73
2022/07/25 01:08:07;;;;;;;;;;;21.20;99.90;;;;;;5009554;28;19921;-72
2022/07/25 01:10:33;;;;;;;;;;;21.10;99.90;;;;;;5023396;28;19925;-73
2022/07/25 01:12:59;;;;;;;;;;;21.10;99.90;;;;;;5043065;28;19931;-72
2022/07/25 01:15:25;;;;;;;;;;;21.10;99.90;;;;;;5026228;28;19921;-73
2022/07/25 01:17:50;;;;;;;;;;;21.10;99.90;;;;;;5019250;28;19921;-73
2022/07/25 01:20:16;;;;;;;;;;;21.10;99.90;;;;;;5019373;28;19940;-73
2022/07/25 01:22:42;;;;;;;;;;;21.10;99.90;;;;;;5027146;28;19968;-73
2022/07/25 01:25:08;;;;;;;;;;;21.10;99.90;;;;;;5023839;28;19964;-72
2022/07/25 01:27:33;;;;;;;;;;;21.10;99.90;;;;;;5021366;28;20015;-72
2022/07/25 01:29:59;;;;;;;;;;;21.00;99.90;;;;;;5026154;28;19929;-72
2022/07/25 01:32:24;;;;;;;;;;;21.00;99.90;;;;;;5027254;28;19921;-72
2022/07/25 01:34:50;;;;;;;;;;;21.00;99.90;;;;;;5019734;28;20394;-72
2022/07/25 01:37:15;;;;;;;;;;;20.90;99.90;;;;;;5021567;28;19921;-72
2022/07/25 01:39:41;;;;;;;;;;;20.90;99.90;;;;;;5021577;28;19931;-72
2022/07/25 01:42:07;;;;;;;;;;;20.90;99.90;;;;;;5026156;28;20441;-72
2022/07/25 01:44:32;;;;;;;;;;;20.90;99.90;;;;;;5025454;28;20295;-72
2022/07/25 01:46:58;;;;;;;;;;;20.80;99.90;;;;;;5041116;28;19932;-72
2022/07/25 01:49:25;;;;;;;;;;;20.80;99.90;;;;;;5027905;28;19929;-72
2022/07/25 01:51:51;;;;;;;;;;;20.80;99.90;;;;;;5042460;28;19928;-72
2022/07/25 01:54:16;;;;;;;;;;;20.80;99.90;;;;;;5019658;28;19926;-72
2022/07/25 01:56:43;;;;;;;;;;;20.70;99.90;;;;;;5024248;28;20062;-72
2022/07/25 01:59:08;;;;;;;;;;;20.70;99.90;;;;;;5025244;28;19929;-72
2022/07/25 02:01:35;;;;;;;;;;;20.70;99.90;;;;;;5026041;28;19928;-72
2022/07/25 02:04:00;;;;;;;;;;;20.70;99.90;;;;;;5014024;28;20012;-72
2022/07/25 02:06:26;;;;;;;;;;;20.70;99.90;;;;;;5021725;28;19935;-72
2022/07/25 02:08:51;;;;;;;;;;;20.60;99.90;;;;;;5021878;28;19929;-72
2022/07/25 02:11:17;;;;;;;;;;;20.70;99.90;;;;;;5023712;28;19929;-72
2022/07/25 02:13:43;;;;;;;;;;;20.60;99.90;;;;;;5024579;28;19935;-72
2022/07/25 02:16:09;;;;;;;;;;;20.60;99.90;;;;;;5023549;28;19925;-73
2022/07/25 02:18:34;;;;;;;;;;;20.60;99.90;;;;;;5026158;28;19921;-72
2022/07/25 02:21:00;;;;;;;;;;;20.50;99.90;;;;;;5028926;28;19921;-72
2022/07/25 02:23:25;;;;;;;;;;;20.50;99.90;;;;;;5026367;28;19921;-72
2022/07/25 02:25:51;;;;;;;;;;;20.50;99.90;;;;;;5003427;28;19944;-72
2022/07/25 02:28:17;;;;;;;;;;;20.50;99.90;;;;;;5022094;28;19929;-72
2022/07/25 02:30:42;;;;;;;;;;;20.50;99.90;;;;;;5028690;28;19928;-72
2022/07/25 02:33:08;;;;;;;;;;;20.50;99.90;;;;;;5024211;28;19929;-72
2022/07/25 02:35:33;;;;;;;;;;;20.40;99.90;;;;;;5023664;28;19921;-72
2022/07/25 02:37:59;;;;;;;;;;;20.50;99.90;;;;;;5024560;28;19925;-72
2022/07/25 02:40:25;;;;;;;;;;;20.50;99.90;;;;;;5029648;28;20046;-72
2022/07/25 02:42:50;;;;;;;;;;;20.50;99.90;;;;;;5028909;28;19921;-72
2022/07/25 02:45:16;;;;;;;;;;;20.50;99.90;;;;;;5027796;28;19996;-72
2022/07/25 02:47:42;;;;;;;;;;;20.50;99.90;;;;;;5021317;28;19983;-72
2022/07/25 02:50:08;;;;;;;;;;;20.50;99.90;;;;;;5025975;28;19967;-72
2022/07/25 02:52:33;;;;;;;;;;;20.50;99.90;;;;;;5020841;28;20026;-72
2022/07/25 02:54:59;;;;;;;;;;;20.50;99.90;;;;;;5023906;28;20359;-72
2022/07/25 02:57:25;;;;;;;;;;;20.40;99.90;;;;;;5020169;28;19922;-70
2022/07/25 02:59:50;;;;;;;;;;;20.40;99.90;;;;;;5023697;28;19921;-72
2022/07/25 03:02:16;;;;;;;;;;;20.40;99.90;;;;;;5024594;28;19921;-72
2022/07/25 03:04:41;;;;;;;;;;;20.40;99.90;;;;;;5023728;28;20302;-72
2022/07/25 03:07:07;;;;;;;;;;;20.40;99.90;;;;;;5015656;28;19925;-72
2022/07/25 03:09:32;;;;;;;;;;;20.40;99.90;;;;;;5025880;28;19999;-72
2022/07/25 03:11:58;;;;;;;;;;;20.30;99.90;;;;;;5023421;28;19984;-72
2022/07/25 03:14:23;;;;;;;;;;;20.30;99.90;;;;;;5022355;28;19925;-72
2022/07/25 03:16:49;;;;;;;;;;;20.30;99.90;;;;;;5015078;28;19933;-72
2022/07/25 03:19:14;;;;;;;;;;;20.30;99.90;;;;;;5020144;28;19979;-72
2022/07/25 03:21:40;;;;;;;;;;;20.20;99.90;;;;;;5022796;28;19929;-72
2022/07/25 03:24:06;;;;;;;;;;;20.20;99.90;;;;;;5023356;28;19921;-72
2022/07/25 03:26:31;;;;;;;;;;;20.20;99.90;;;;;;5017411;28;19921;-72
2022/07/25 03:28:57;;;;;;;;;;;20.10;99.90;;;;;;5025089;28;20135;-72
2022/07/25 03:31:23;;;;;;;;;;;20.10;99.90;;;;;;5025659;28;19964;-73
2022/07/25 03:33:48;;;;;;;;;;;20.10;99.90;;;;;;5021324;28;19925;-72
2022/07/25 03:36:14;;;;;;;;;;;20.10;99.90;;;;;;5037398;28;19925;-71
2022/07/25 03:38:40;;;;;;;;;;;20.10;99.90;;;;;;5019737;28;19929;-73
2022/07/25 03:41:05;;;;;;;;;;;20.10;99.90;;;;;;5023642;28;19972;-71
2022/07/25 03:43:31;;;;;;;;;;;20.10;99.90;;;;;;5020556;28;19964;-72
2022/07/25 03:45:56;;;;;;;;;;;20.10;99.90;;;;;;5016958;28;19921;-71
2022/07/25 03:48:22;;;;;;;;;;;20.10;99.90;;;;;;5022759;28;19928;-72
2022/07/25 03:50:48;;;;;;;;;;;20.10;99.90;;;;;;5025809;28;19925;-72
2022/07/25 03:53:13;;;;;;;;;;;20.10;99.90;;;;;;5021338;28;19932;-72
2022/07/25 03:55:39;;;;;;;;;;;20.20;99.90;;;;;;5020538;28;20024;-72
2022/07/25 03:58:04;;;;;;;;;;;20.20;99.90;;;;;;5010615;28;19967;-72
2022/07/25 04:00:30;;;;;;;;;;;20.20;99.90;;;;;;5030534;28;19921;-72
2022/07/25 04:02:55;;;;;;;;;;;20.20;99.90;;;;;;5015355;28;19921;-72
2022/07/25 04:05:21;;;;;;;;;;;20.10;99.90;;;;;;5025082;28;19983;-71
2022/07/25 04:07:47;;;;;;;;;;;20.10;99.90;;;;;;5023263;28;19993;-71
2022/07/25 04:10:12;;;;;;;;;;;20.10;99.90;;;;;;5031688;28;19921;-71
2022/07/25 04:12:38;;;;;;;;;;;20.10;99.90;;;;;;5003008;28;19921;-72
2022/07/25 04:15:04;;;;;;;;;;;20.10;99.90;;;;;;5025426;28;19925;-72
2022/07/25 04:17:29;;;;;;;;;;;20.00;99.90;;;;;;5028991;28;19925;-72
2022/07/25 04:19:55;;;;;;;;;;;20.00;99.90;;;;;;5021693;28;19928;-71
2022/07/25 04:22:21;;;;;;;;;;;20.00;99.90;;;;;;5021597;28;19961;-72
2022/07/25 04:24:47;;;;;;;;;;;20.00;99.90;;;;;;5029218;28;20374;-72
2022/07/25 04:27:12;;;;;;;;;;;20.10;99.90;;;;;;5028892;28;20009;-72
2022/07/25 04:29:38;;;;;;;;;;;20.10;99.90;;;;;;5024237;28;20483;-73
2022/07/25 04:32:04;;;;;;;;;;;20.10;99.90;;;;;;5006626;28;19971;-72
2022/07/25 04:34:29;;;;;;;;;;;20.10;99.90;;;;;;5029935;28;19936;-72
2022/07/25 04:36:55;;;;;;;;;;;20.10;99.90;;;;;;5021477;28;19922;-72
2022/07/25 04:39:20;;;;;;;;;;;20.20;99.90;;;;;;5015353;28;19929;-72
2022/07/25 04:41:46;;;;;;;;;;;20.20;99.90;;;;;;5024315;28;19928;-72
2022/07/25 04:44:12;;;;;;;;;;;20.30;99.90;;;;;;5028837;28;19929;-72
2022/07/25 04:46:38;;;;;;;;;;;20.30;99.90;;;;;;5022081;28;19926;-72
2022/07/25 04:49:04;;;;;;;;;;;20.30;99.90;;;;;;5011858;28;19937;-72
2022/07/25 04:51:30;;;;;;;;;;;20.40;99.90;;;;;;5030579;28;20276;-72
2022/07/25 04:53:55;;;;;;;;;;;20.40;99.90;;;;;;5044619;28;19925;-71
2022/07/25 04:56:21;;;;;;;;;;;20.50;99.90;;;;;;5031381;28;20477;-71
2022/07/25 04:58:46;;;;;;;;;;;20.50;99.90;;;;;;5028827;28;19921;-72
2022/07/25 05:01:12;;;;;;;;;;;20.60;99.90;;;;;;5024062;28;20473;-72
2022/07/25 05:03:37;;;;;;;;;;;20.60;99.90;;;;;;5040574;28;20441;-72
2022/07/25 05:06:03;;;;;;;;;;;20.60;99.90;;;;;;5046780;28;20378;-72
2022/07/25 05:08:29;;;;;;;;;;;20.60;99.90;;;;;;5034141;28;20366;-71
2022/07/25 05:10:55;;;;;;;;;;;20.70;99.90;;;;;;5025828;28;20287;-72
2022/07/25 05:13:20;;;;;;;;;;;20.70;99.90;;;;;;5008578;28;19929;-71
2022/07/25 05:15:46;;;;;;;;;;;20.90;99.90;;;;;;5019639;28;20450;-72
2022/07/25 05:18:12;;;;;;;;;;;20.90;99.90;;;;;;5015690;28;19976;-72
2022/07/25 05:20:38;;;;;;;;;;;20.90;99.90;;;;;;5025939;28;19925;-72
2022/07/25 05:23:03;;;;;;;;;;;21.00;99.90;;;;;;5005266;28;20372;-72
2022/07/25 05:25:29;;;;;;;;;;;21.00;99.90;;;;;;5009104;28;20323;-72
2022/07/25 05:27:57;;;;;;;;;;;21.10;99.90;;;;;;5024230;28;20376;-72
2022/07/25 05:30:22;;;;;;;;;;;21.20;99.90;;;;;;5026784;28;19925;-72
2022/07/25 05:32:48;;;;;;;;;;;21.20;99.90;;;;;;5024347;28;20343;-71
2022/07/25 05:35:14;;;;;;;;;;;21.30;99.90;;;;;;5022119;28;20384;-72
2022/07/25 05:37:40;;;;;;;;;;;21.30;99.90;;;;;;5022044;28;19929;-72
2022/07/25 05:40:07;;;;;;;;;;;21.40;99.90;;;;;;5021918;28;19921;-73
2022/07/25 05:42:32;;;;;;;;;;;21.50;99.90;;;;;;5025354;28;19953;-73
2022/07/25 05:44:58;;;;;;;;;;;21.60;99.90;;;;;;5024849;28;21503;-73
2022/07/25 05:47:24;;;;;;;;;;;21.70;99.90;;;;;;5039923;28;19980;-72
2022/07/25 05:49:49;;;;;;;;;;;21.70;99.90;;;;;;5023517;28;19921;-72
2022/07/25 05:52:15;;;;;;;;;;;21.70;99.90;;;;;;5015719;28;19925;-73
2022/07/25 05:54:41;;;;;;;;;;;21.80;99.90;;;;;;5015773;28;19929;-72
2022/07/25 05:57:07;;;;;;;;;;;21.90;99.90;;;;;;5017201;28;19928;-73
2022/07/25 05:59:32;;;;;;;;;;;21.90;99.90;;;;;;5020674;28;19921;-73
2022/07/25 06:01:59;;;;;;;;;;;22.00;99.90;;;;;;5021513;28;19921;-73
2022/07/25 06:04:25;;;;;;;;;;;22.00;99.90;;;;;;5033993;28;19929;-73
2022/07/25 06:06:51;;;;;;;;;;;22.10;99.90;;;;;;5041340;28;19940;-73
2022/07/25 06:09:20;;;;;;;;;;;22.10;99.90;;;;;;5024144;28;19921;-72
2022/07/25 06:11:46;;;;;;;;;;;22.10;99.90;;;;;;5020076;28;19921;-70
2022/07/25 06:14:12;;;;;;;;;;;22.20;99.90;;;;;;5017521;28;19960;-73
2022/07/25 06:16:37;;;;;;;;;;;22.30;99.90;;;;;;5017547;28;20399;-73
2022/07/25 06:19:03;;;;;;;;;;;22.40;99.90;;;;;;5020145;28;19921;-73
2022/07/25 06:21:29;;;;;;;;;;;22.40;99.90;;;;;;5025147;28;19963;-73
2022/07/25 06:23:54;;;;;;;;;;;22.50;99.90;;;;;;5017931;28;19929;-74
2022/07/25 06:26:20;;;;;;;;;;;22.60;99.90;;;;;;5008191;28;19925;-72
2022/07/25 06:28:46;;;;;;;;;;;22.70;99.90;;;;;;5002998;28;20028;-73
2022/07/25 06:31:11;;;;;;;;;;;22.70;99.90;;;;;;5017620;28;20003;-73
2022/07/25 06:33:37;;;;;;;;;;;22.90;99.90;;;;;;5017808;28;19940;-74
2022/07/25 06:36:04;;;;;;;;;;;23.00;99.90;;;;;;5027414;28;19928;-74
2022/07/25 06:38:29;;;;;;;;;;;22.90;99.90;;;;;;5018665;28;20007;-73
2022/07/25 06:40:55;;;;;;;;;;;23.10;99.90;;;;;;5022842;28;20055;-76
2022/07/25 06:43:20;;;;;;;;;;;23.20;99.90;;;;;;5021362;28;20750;-77
2022/07/25 06:45:46;;;;;;;;;;;23.20;99.90;;;;;;5024026;28;19928;-77
2022/07/25 06:48:12;;;;;;;;;;;23.30;99.90;;;;;;4997668;28;19950;-77
2022/07/25 06:50:38;;;;;;;;;;;23.40;99.90;;;;;;5000592;28;20019;-77
2022/07/25 06:53:04;;;;;;;;;;;23.40;99.90;;;;;;5022632;28;20008;-76
2022/07/25 06:55:29;;;;;;;;;;;23.50;99.90;;;;;;5027484;28;19932;-77
2022/07/25 06:57:55;;;;;;;;;;;23.50;99.90;;;;;;5004331;28;20324;-77
2022/07/25 07:00:20;;;;;;;;;;;23.70;99.90;;;;;;5029973;28;20282;-77
2022/07/25 07:02:52;;;;;;;;;;;23.80;99.90;;;;;;5015436;28;19923;-77
2022/07/25 07:05:18;;;;;;;;;;;23.80;99.90;;;;;;5029036;28;20447;-77
2022/07/25 07:07:44;;;;;;;;;;;23.90;99.90;;;;;;5024765;28;20016;-76
2022/07/25 07:10:09;;;;;;;;;;;23.90;99.90;;;;;;5020119;28;19925;-77
2022/07/25 07:12:35;;;;;;;;;;;23.90;99.90;;;;;;5022081;28;20276;-76
2022/07/25 07:15:01;;;;;;;;;;;24.00;99.90;;;;;;5023938;28;19933;-77
2022/07/25 07:17:26;;;;;;;;;;;24.00;99.90;;;;;;5019436;28;19921;-77
2022/07/25 07:19:52;;;;;;;;;;;24.10;99.90;;;;;;5034843;28;20395;-74
2022/07/25 07:22:17;;;;;;;;;;;24.20;99.90;;;;;;5023997;28;19921;-77
2022/07/25 07:24:43;;;;;;;;;;;24.20;99.90;;;;;;5022684;28;20396;-77
2022/07/25 07:27:09;;;;;;;;;;;24.30;99.90;;;;;;5023364;28;20407;-77
2022/07/25 07:29:34;;;;;;;;;;;24.20;99.90;;;;;;5021438;28;20335;-77
2022/07/25 07:32:00;;;;;;;;;;;24.20;99.90;;;;;;5022289;28;20377;-76
2022/07/25 07:34:25;;;;;;;;;;;24.30;99.90;;;;;;5029694;28;19925;-77
2022/07/25 07:36:51;;;;;;;;;;;24.20;99.90;;;;;;5030654;28;20395;-76
2022/07/25 07:39:16;;;;;;;;;;;24.20;99.90;;;;;;5030475;28;19921;-77
2022/07/25 07:41:42;;;;;;;;;;;24.10;99.90;;;;;;5021680;28;20384;-77
2022/07/25 07:44:08;;;;;;;;;;;24.00;99.90;;;;;;5028339;28;19960;-77
2022/07/25 07:46:33;;;;;;;;;;;24.00;99.90;;;;;;5020673;28;19922;-76
2022/07/25 07:48:59;;;;;;;;;;;24.00;99.90;;;;;;5019159;28;19932;-76
2022/07/25 07:51:24;;;;;;;;;;;24.00;99.90;;;;;;5018666;28;19921;-76
2022/07/25 07:56:34;;;;;;;;;;;24.00;99.90;;;;;;5021418;28;19925;-76
2022/07/25 07:59:00;;;;;;;;;;;24.10;99.90;;;;;;5004907;28;19922;-77
2022/07/25 08:01:26;;;;;;;;;;;24.10;99.90;;;;;;5015049;28;20353;-76
2022/07/25 08:03:52;;;;;;;;;;;24.20;99.90;;;;;;5000924;28;19956;-77
2022/07/25 08:06:18;;;;;;;;;;;24.30;99.90;;;;;;5022361;28;19933;-76
2022/07/25 08:08:43;;;;;;;;;;;24.30;99.90;;;;;;5018408;28;19921;-76
2022/07/25 08:11:09;;;;;;;;;;;24.40;99.90;;;;;;5019376;28;19978;-76
2022/07/25 08:13:36;;;;;;;;;;;24.50;99.90;;;;;;5019124;28;20447;-77
2022/07/25 08:16:03;;;;;;;;;;;24.50;99.90;;;;;;5018699;28;20736;-76
2022/07/25 08:18:30;;;;;;;;;;;24.50;99.90;;;;;;4988669;28;19929;-77
2022/07/25 08:20:56;;;;;;;;;;;24.40;99.90;;;;;;5015617;28;20310;-76
2022/07/25 08:23:21;;;;;;;;;;;24.30;99.90;;;;;;5018897;28;19994;-76
2022/07/25 08:25:47;;;;;;;;;;;24.30;99.90;;;;;;5007640;28;19929;-77
2022/07/25 08:28:13;;;;;;;;;;;24.30;99.90;;;;;;5003044;28;20019;-77
2022/07/25 08:30:39;;;;;;;;;;;24.40;99.90;;;;;;5014433;28;20044;-77
2022/07/25 08:33:06;;;;;;;;;;;24.40;99.90;;;;;;5020480;28;19928;-77
2022/07/25 08:35:33;;;;;;;;;;;24.50;99.90;;;;;;5016082;28;19921;-77
2022/07/25 08:38:01;;;;;;;;;;;24.50;99.90;;;;;;5001557;28;19929;-72
2022/07/25 08:40:27;;;;;;;;;;;24.60;99.90;;;;;;5018849;28;20015;-72
2022/07/25 08:42:57;;;;;;;;;;;24.60;99.90;;;;;;5019212;28;19932;-73
2022/07/25 08:45:23;;;;;;;;;;;24.50;99.90;;;;;;5022846;28;19936;-72
2022/07/25 08:47:49;;;;;;;;;;;24.50;99.90;;;;;;5023705;28;19921;-72
2022/07/25 08:50:16;;;;;;;;;;;24.30;99.90;;;;;;5020541;28;20012;-72
2022/07/25 08:52:42;;;;;;;;;;;24.20;99.90;;;;;;5025425;28;20445;-73
2022/07/25 08:55:09;;;;;;;;;;;24.20;99.90;;;;;;5017849;28;19933;-71
2022/07/25 08:57:36;;;;;;;;;;;24.20;99.90;;;;;;5021354;28;19921;-73
2022/07/25 09:00:03;;;;;;;;;;;24.20;99.90;;;;;;5027024;28;19967;-73
2022/07/25 09:02:29;;;;;;;;;;;24.20;99.90;;;;;;5026508;28;19925;-72
2022/07/25 09:04:56;;;;;;;;;;;24.20;99.90;;;;;;5020265;28;19932;-73
2022/07/25 09:07:29;;;;;;;;;;;24.10;99.90;;;;;;5031496;28;20004;-73
2022/07/25 09:09:54;;;;;;;;;;;24.20;99.90;;;;;;5024782;28;20443;-73
2022/07/25 09:12:24;;;;;;;;;;;24.10;99.90;;;;;;5033029;28;20008;-73
2022/07/25 09:14:49;;;;;;;;;;;24.20;99.90;;;;;;5011821;28;20012;-73
2022/07/25 09:17:15;;;;;;;;;;;24.20;99.90;;;;;;5023611;28;20012;-73
2022/07/25 09:19:50;;;;;;;;;;;24.30;99.90;;;;;;5025739;28;20427;-73
2022/07/25 09:22:15;;;;;;;;;;;24.30;99.90;;;;;;5026615;28;19921;-72
2022/07/25 09:24:43;;;;;;;;;;;24.30;99.90;;;;;;5024639;28;19928;-72
2022/07/25 09:27:09;;;;;;;;;;;24.40;99.90;;;;;;5027093;28;20388;-73
2022/07/25 09:29:37;;;;;;;;;;;24.40;99.90;;;;;;5033227;28;19947;-73
2022/07/25 09:32:12;;;;;;;;;;;24.30;99.90;;;;;;5031994;28;19928;-73
2022/07/25 09:34:39;;;;;;;;;;;24.40;99.90;;;;;;5020443;28;20281;-73
2022/07/25 09:37:11;;;;;;;;;;;24.40;99.90;;;;;;5024034;28;19921;-73
2022/07/25 09:39:44;;;;;;;;;;;24.50;99.90;;;;;;5017403;28;19932;-74
2022/07/25 09:42:15;;;;;;;;;;;24.70;99.90;;;;;;5020262;28;19979;-73
2022/07/25 09:44:41;;;;;;;;;;;25.00;99.90;;;;;;5018623;28;20008;-71
2022/07/25 09:47:10;;;;;;;;;;;25.20;99.90;;;;;;5024147;28;19944;-73
2022/07/25 09:49:44;;;;;;;;;;;25.40;99.90;;;;;;5019162;28;19921;-71
2022/07/25 09:52:10;;;;;;;;;;;25.30;99.90;;;;;;5019327;28;20295;-72
2022/07/25 09:54:36;;;;;;;;;;;25.10;99.90;;;;;;5026913;28;20016;-72
2022/07/25 09:57:02;;;;;;;;;;;25.00;99.90;;;;;;5019096;28;19997;-72
2022/07/25 09:59:27;;;;;;;;;;;24.90;99.90;;;;;;5026512;28;19940;-72
2022/07/25 10:01:59;;;;;;;;;;;24.80;99.90;;;;;;5022757;28;19925;-72
2022/07/25 10:04:31;;;;;;;;;;;24.50;99.90;;;;;;5019139;28;20477;-72
2022/07/25 10:07:05;;;;;;;;;;;24.30;99.90;;;;;;5020630;28;19925;-73
2022/07/25 10:09:30;;;;;;;;;;;24.10;99.90;;;;;;5023994;28;19948;-73
2022/07/25 10:12:06;;;;;;;;;;;24.00;99.90;;;;;;5024500;28;19963;-73
2022/07/25 10:14:33;;;;;;;;;;;24.00;99.90;;;;;;5017108;28;19980;-73
2022/07/25 10:17:00;;;;;;;;;;;24.10;99.90;;;;;;5025639;28;19928;-73
2022/07/25 10:19:36;;;;;;;;;;;24.50;99.90;;;;;;5038135;28;21362;-72
2022/07/25 10:22:02;;;;;;;;;;;25.00;99.90;;;;;;5012137;28;20414;-77
2022/07/25 10:24:36;;;;;;;;;;;25.10;99.90;;;;;;5008505;28;19925;-76
2022/07/25 10:27:07;;;;;;;;;;;25.40;99.90;;;;;;5022750;28;19937;-76
2022/07/25 10:29:34;;;;;;;;;;;25.50;99.90;;;;;;5012152;28;19928;-77
2022/07/25 10:32:10;;;;;;;;;;;25.60;99.90;;;;;;5022064;28;19979;-76
2022/07/25 10:34:35;;;;;;;;;;;25.70;99.90;;;;;;5011524;28;20018;-76
2022/07/25 10:37:09;;;;;;;;;;;25.80;99.90;;;;;;5017064;28;19975;-77
2022/07/25 10:39:39;;;;;;;;;;;25.70;99.90;;;;;;5015882;28;19926;-76
2022/07/25 10:42:05;;;;;;;;;;;25.60;99.90;;;;;;5014668;28;20020;-77
2022/07/25 10:44:44;;;;;;;;;;;25.40;99.90;;;;;;5021302;28;19932;-76
2022/07/25 10:47:10;;;;;;;;;;;25.20;99.90;;;;;;5038657;28;19925;-77
2022/07/25 10:49:38;;;;;;;;;;;25.00;99.90;;;;;;5014614;28;20497;-75
2022/07/25 10:52:04;;;;;;;;;;;24.90;99.90;;;;;;5019983;28;19928;-77
2022/07/25 10:54:37;;;;;;;;;;;24.90;99.90;;;;;;5022616;28;19929;-76
2022/07/25 10:57:04;;;;;;;;;;;24.90;99.90;;;;;;5019796;28;19920;-76
2022/07/25 10:59:31;;;;;;;;;;;24.90;99.90;;;;;;5010860;28;19971;-75
2022/07/25 11:01:57;;;;;;;;;;;24.70;99.90;;;;;;5018042;28;19980;-76
2022/07/25 11:04:22;;;;;;;;;;;24.40;99.90;;;;;;5001686;28;20015;-76
2022/07/25 11:06:48;;;;;;;;;;;24.20;99.90;;;;;;5004656;28;20009;-77
2022/07/25 11:09:15;;;;;;;;;;;24.10;99.90;;;;;;5018181;28;19928;-76
2022/07/25 11:11:46;;;;;;;;;;;24.10;99.90;;;;;;5021910;28;19924;-76
2022/07/25 11:14:20;;;;;;;;;;;24.00;99.90;;;;;;5018558;28;19942;-75
2022/07/25 11:16:47;;;;;;;;;;;23.90;99.90;;;;;;5023427;28;19925;-73
2022/07/25 11:19:27;;;;;;;;;;;23.90;99.90;;;;;;5016681;28;19930;-75
2022/07/25 11:21:54;;;;;;;;;;;23.90;99.90;;;;;;5004955;28;19950;-75
2022/07/25 11:24:21;;;;;;;;;;;24.00;99.90;;;;;;5015187;28;19968;-75
2022/07/25 11:26:49;;;;;;;;;;;24.20;99.90;;;;;;5010140;28;20398;-73
2022/07/25 11:29:23;;;;;;;;;;;24.30;99.90;;;;;;5039482;28;19925;-77
2022/07/25 11:31:55;;;;;;;;;;;24.30;99.90;;;;;;5015857;28;20008;-77
2022/07/25 11:34:23;;;;;;;;;;;24.40;99.90;;;;;;5026617;28;19989;-78
2022/07/25 11:36:49;;;;;;;;;;;24.40;99.90;;;;;;5014733;28;19927;-77
2022/07/25 11:39:16;;;;;;;;;;;24.30;99.90;;;;;;5019182;28;19921;-77
2022/07/25 11:41:42;;;;;;;;;;;24.40;99.90;;;;;;5015247;28;19925;-78
2022/07/25 11:44:08;;;;;;;;;;;24.20;99.90;;;;;;5026466;28;20303;-78
2022/07/25 11:46:41;;;;;;;;;;;24.10;99.90;;;;;;5013677;28;19928;-75
2022/07/25 11:49:07;;;;;;;;;;;24.10;99.90;;;;;;5041373;28;19933;-75
2022/07/25 11:51:37;;;;;;;;;;;24.10;99.90;;;;;;5019641;28;19966;-76
2022/07/25 11:54:07;;;;;;;;;;;24.10;99.90;;;;;;5007748;28;19932;-78
2022/07/25 11:56:36;;;;;;;;;;;24.30;99.90;;;;;;5008443;28;19932;-78
2022/07/25 11:59:02;;;;;;;;;;;24.40;99.90;;;;;;5012491;28;19925;-74
2022/07/25 12:01:40;;;;;;;;;;;24.50;99.90;;;;;;5018487;28;19937;-77
2022/07/25 12:04:18;;;;;;;;;;;24.60;99.90;;;;;;5021487;28;20019;-77
2022/07/25 12:06:46;;;;;;;;;;;24.70;99.90;;;;;;5023551;28;19921;-77
2022/07/25 12:09:13;;;;;;;;;;;24.60;99.90;;;;;;5018830;28;19921;-78
2022/07/25 12:11:38;;;;;;;;;;;24.40;99.90;;;;;;5023881;28;19959;-78
2022/07/25 12:14:04;;;;;;;;;;;24.20;99.90;;;;;;5047438;28;19974;-78
2022/07/25 12:16:30;;;;;;;;;;;24.10;99.90;;;;;;4997072;28;19933;-77
2022/07/25 12:18:56;;;;;;;;;;;24.10;99.90;;;;;;5029450;28;19921;-78
2022/07/25 12:21:22;;;;;;;;;;;24.10;99.90;;;;;;5012965;28;19932;-77
2022/07/25 12:23:47;;;;;;;;;;;24.20;99.90;;;;;;5027735;28;20370;-78
2022/07/25 12:26:13;;;;;;;;;;;24.20;99.90;;;;;;5008902;28;19922;-78
2022/07/25 12:28:39;;;;;;;;;;;24.20;99.90;;;;;;5021132;28;20357;-79
2022/07/25 12:31:05;;;;;;;;;;;24.10;99.90;;;;;;5019143;28;20376;-78
2022/07/25 12:33:32;;;;;;;;;;;24.10;99.90;;;;;;5031334;28;19951;-79
2022/07/25 12:35:59;;;;;;;;;;;24.20;99.90;;;;;;5041931;28;19979;-79
2022/07/25 12:38:25;;;;;;;;;;;24.40;99.90;;;;;;5025994;28;19972;-78
2022/07/25 12:40:51;;;;;;;;;;;24.50;99.90;;;;;;5012728;28;20315;-77
2022/07/25 12:43:16;;;;;;;;;;;24.60;99.90;;;;;;5027319;28;19965;-78
2022/07/25 12:45:42;;;;;;;;;;;24.50;99.90;;;;;;5024994;28;19921;-78
2022/07/25 12:48:08;;;;;;;;;;;24.40;99.90;;;;;;5005106;28;19928;-78
2022/07/25 12:50:33;;;;;;;;;;;24.40;99.90;;;;;;5021427;28;20011;-78
2022/07/25 12:52:59;;;;;;;;;;;24.30;99.90;;;;;;5021246;28;20016;-78
2022/07/25 12:55:26;;;;;;;;;;;24.20;99.90;;;;;;5043906;28;19944;-79
2022/07/25 12:57:52;;;;;;;;;;;24.00;99.90;;;;;;5022585;28;19925;-78
2022/07/25 13:00:19;;;;;;;;;;;23.80;99.90;;;;;;5026958;28;19921;-78
2022/07/25 13:02:45;;;;;;;;;;;23.80;99.90;;;;;;5009931;28;19921;-79
2022/07/25 13:05:11;;;;;;;;;;;23.80;99.90;;;;;;5028130;28;20347;-77
2022/07/25 13:07:36;;;;;;;;;;;23.80;99.90;;;;;;5007088;28;19925;-77
2022/07/25 13:10:02;;;;;;;;;;;23.90;99.90;;;;;;5023628;28;19921;-78
2022/07/25 13:12:29;;;;;;;;;;;24.00;99.90;;;;;;5006738;28;20538;-75
2022/07/25 13:14:54;;;;;;;;;;;24.10;99.90;;;;;;5027692;28;20465;-75
2022/07/25 13:17:20;;;;;;;;;;;24.10;99.90;;;;;;5027014;28;19921;-75
2022/07/25 13:19:45;;;;;;;;;;;24.10;99.90;;;;;;5015217;28;20373;-75
2022/07/25 13:22:11;;;;;;;;;;;24.10;99.90;;;;;;5030008;28;19928;-73
2022/07/25 13:24:38;;;;;;;;;;;24.10;99.90;;;;;;5033973;28;20288;-73
2022/07/25 13:27:06;;;;;;;;;;;23.90;99.90;;;;;;5016730;28;20443;-73
2022/07/25 13:29:32;;;;;;;;;;;23.60;99.90;;;;;;5029156;28;20514;-73
2022/07/25 13:31:58;;;;;;;;;;;23.40;99.90;;;;;;5028066;28;19922;-73
2022/07/25 13:34:24;;;;;;;;;;;23.30;99.90;;;;;;5028450;28;20407;-73
2022/07/25 13:36:49;;;;;;;;;;;23.10;99.90;;;;;;5027700;28;20009;-73
2022/07/25 13:39:15;;;;;;;;;;;22.90;99.90;;;;;;5023961;28;19922;-73
2022/07/25 13:41:40;;;;;;;;;;;22.70;99.90;;;;;;5031472;28;19928;-73
2022/07/25 13:44:06;;;;;;;;;;;22.50;99.90;;;;;;5036957;28;19921;-73
2022/07/25 13:46:32;;;;;;;;;;;22.50;99.90;;;;;;5037962;28;19959;-73
2022/07/25 13:48:58;;;;;;;;;;;22.40;99.90;;;;;;5018332;28;20281;-73
2022/07/25 13:51:23;;;;;;;;;;;22.30;99.90;;;;;;5028330;28;19928;-73
2022/07/25 13:53:49;;;;;;;;;;;22.20;99.90;;;;;;5044820;28;19936;-73
2022/07/25 13:56:15;;;;;;;;;;;22.20;99.90;;;;;;5016182;28;20020;-73
2022/07/25 13:58:41;;;;;;;;;;;22.20;99.90;;;;;;5023097;28;19995;-73
2022/07/25 14:01:08;;;;;;;;;;;22.30;99.90;;;;;;5029171;28;19921;-73
2022/07/25 14:03:35;;;;;;;;;;;22.50;99.90;;;;;;5016948;28;20002;-73
2022/07/25 14:06:01;;;;;;;;;;;22.80;99.90;;;;;;5000192;28;20285;-73
2022/07/25 14:08:27;;;;;;;;;;;23.20;99.90;;;;;;5022371;28;19929;-72
2022/07/25 14:10:53;;;;;;;;;;;23.40;99.90;;;;;;5021044;28;19921;-73
2022/07/25 14:13:18;;;;;;;;;;;23.50;99.90;;;;;;5022247;28;19928;-74